createdAt,value
2023-04-23T00:02:03.828Z,36.06
2023-04-23T00:04:35.955Z,36.03
2023-04-23T00:07:33.085Z,36.04
2023-04-23T00:10:32.443Z,36.04
2023-04-23T00:13:45.566Z,36.02
2023-04-23T00:19:36.979Z,36.00
2023-04-23T00:22:09.317Z,35.97
2023-04-23T00:25:07.843Z,35.97
2023-04-23T00:27:11.506Z,35.98
2023-04-23T00:29:41.929Z,35.98
2023-04-23T00:32:11.880Z,36.00
2023-04-23T00:34:42.044Z,35.99
2023-04-23T00:37:34.457Z,35.99
2023-04-23T00:40:14.480Z,36.01
2023-04-23T00:45:21.458Z,36.01
2023-04-23T00:47:52.866Z,36.05
2023-04-23T00:50:22.846Z,36.04
2023-04-23T00:53:00.228Z,36.03
2023-04-23T00:55:34.108Z,36.02
2023-04-23T01:01:21.668Z,36.00
2023-04-23T01:04:15.842Z,35.99
2023-04-23T01:09:38.883Z,35.98
2023-04-23T01:12:26.626Z,36.07
2023-04-23T01:14:59.219Z,36.10
2023-04-23T01:17:31.796Z,36.05
2023-04-23T01:20:04.242Z,36.06
2023-04-23T01:22:47.162Z,36.00
2023-04-23T01:26:11.987Z,36.05
2023-04-23T01:28:48.648Z,36.05
2023-04-23T01:31:20.538Z,36.11
2023-04-23T01:36:45.748Z,36.12
2023-04-23T01:39:15.658Z,36.15
2023-04-23T01:41:56.129Z,36.14
2023-04-23T01:44:27.532Z,36.16
2023-04-23T01:47:00.482Z,36.17
2023-04-23T01:49:47.181Z,36.14
2023-04-23T02:06:51.710Z,36.21
2023-04-23T02:09:22.964Z,36.24
2023-04-23T02:11:52.966Z,36.27
2023-04-23T02:14:28.880Z,36.30
2023-04-23T02:17:09.010Z,36.28
2023-04-23T02:19:43.112Z,36.29
2023-04-23T02:25:46.017Z,36.25
2023-04-23T02:34:58.604Z,36.24
2023-04-23T02:37:58.733Z,36.24
2023-04-23T02:44:00.999Z,36.24
2023-04-23T02:46:36.454Z,36.22
2023-04-23T02:49:40.495Z,36.23
2023-04-23T02:52:39.134Z,36.20
2023-04-23T02:55:38.082Z,36.17
2023-04-23T03:00:58.404Z,36.18
2023-04-23T03:03:35.357Z,36.17
2023-04-23T03:06:05.534Z,36.16
2023-04-23T03:08:38.892Z,36.16
2023-04-23T03:11:14.141Z,36.15
2023-04-23T03:16:51.196Z,36.13
2023-04-23T03:19:30.071Z,36.13
2023-04-23T03:22:03.241Z,36.11
2023-04-23T03:24:37.497Z,36.23
2023-04-23T03:27:07.587Z,36.32
2023-04-23T03:29:40.354Z,36.43
2023-04-23T03:32:10.642Z,36.49
2023-04-23T03:34:54.495Z,36.40
2023-04-23T03:37:34.495Z,36.40
2023-04-23T03:40:05.855Z,36.38
2023-04-23T03:42:36.044Z,36.38
2023-04-23T03:45:06.888Z,36.31
2023-04-23T03:47:39.654Z,36.24
2023-04-23T03:50:10.702Z,36.25
2023-04-23T03:52:52.254Z,36.21
2023-04-23T03:55:48.158Z,36.12
2023-04-23T03:58:38.209Z,36.10
2023-04-23T04:01:10.284Z,36.05
2023-04-23T04:03:42.045Z,36.04
2023-04-23T04:06:16.724Z,36.02
2023-04-23T04:08:47.115Z,36.03
2023-04-23T04:11:25.386Z,36.02
2023-04-23T04:14:08.333Z,35.97
2023-04-23T04:16:51.176Z,35.98
2023-04-23T04:19:39.535Z,35.97
2023-04-23T04:22:09.718Z,35.99
2023-04-23T04:24:50.917Z,35.97
2023-04-23T04:27:24.878Z,35.96
2023-04-23T04:29:56.237Z,35.95
2023-04-23T04:35:25.655Z,35.96
2023-04-23T04:38:05.415Z,35.96
2023-04-23T04:40:41.649Z,35.95
2023-04-23T04:43:14.416Z,35.93
2023-04-23T04:45:45.506Z,35.94
2023-04-23T04:48:15.670Z,35.94
2023-04-23T04:50:47.778Z,35.95
2023-04-23T04:53:19.203Z,35.96
2023-04-23T04:56:00.967Z,35.98
2023-04-23T04:58:41.018Z,35.97
2023-04-23T05:01:11.670Z,35.94
2023-04-23T05:03:41.955Z,35.94
2023-04-23T05:06:14.568Z,35.94
2023-04-23T05:11:59.999Z,35.94
2023-04-23T05:14:35.597Z,35.94
2023-04-23T05:17:11.873Z,35.92
2023-04-23T05:32:16.686Z,35.93
2023-04-23T05:34:50.870Z,35.94
2023-04-23T05:37:21.223Z,36.10
2023-04-23T05:39:51.510Z,36.10
2023-04-23T05:42:24.425Z,35.93
2023-04-23T05:44:54.747Z,35.94
2023-04-23T05:47:27.867Z,35.95
2023-04-23T05:50:13.252Z,35.93
2023-04-23T05:52:56.076Z,35.93
2023-04-23T05:55:27.572Z,35.94
2023-04-23T05:57:57.594Z,35.95
2023-04-23T06:00:27.663Z,35.96
2023-04-23T06:03:07.150Z,35.96
2023-04-23T06:05:46.609Z,35.95
2023-04-23T06:08:48.732Z,35.96
2023-04-23T06:14:43.278Z,35.95
2023-04-23T06:20:28.952Z,35.96
2023-04-23T06:23:05.318Z,35.96
2023-04-23T06:28:23.184Z,35.99
2023-04-23T06:30:54.780Z,35.99
2023-04-23T06:33:29.142Z,36.00
2023-04-23T06:36:03.264Z,36.02
2023-04-23T06:38:43.631Z,36.00
2023-04-23T06:41:16.149Z,36.01
2023-04-23T06:44:04.326Z,36.02
2023-04-23T06:46:33.905Z,35.99
2023-04-23T06:49:05.325Z,36.00
2023-04-23T06:51:35.360Z,36.01
2023-04-23T06:54:07.098Z,36.02
2023-04-23T06:56:44.850Z,36.03
2023-04-23T06:59:15.155Z,36.02
2023-04-23T07:02:02.399Z,36.03
2023-04-23T07:04:34.893Z,36.04
2023-04-23T07:07:06.695Z,36.04
2023-04-23T07:09:37.983Z,36.06
2023-04-23T07:15:11.928Z,36.05
2023-04-23T07:17:43.080Z,36.05
2023-04-23T07:21:05.394Z,36.06
2023-04-23T07:23:54.097Z,36.05
2023-04-23T07:27:17.780Z,36.07
2023-04-23T07:32:59.708Z,36.07
2023-04-23T07:35:54.831Z,36.09
2023-04-23T07:38:50.931Z,36.10
2023-04-23T07:50:15.603Z,36.11
2023-04-23T07:52:45.585Z,36.09
2023-04-23T07:55:16.070Z,36.11
2023-04-23T07:57:46.038Z,36.10
2023-04-23T08:00:17.968Z,36.10
2023-04-23T08:02:51.052Z,36.11
2023-04-23T08:05:28.305Z,36.10
2023-04-23T08:11:32.774Z,36.10
2023-04-23T08:14:26.075Z,36.11
2023-04-23T08:19:50.168Z,36.12
2023-04-23T08:22:22.962Z,36.12
2023-04-23T08:24:53.201Z,36.12
2023-04-23T08:27:23.696Z,36.12
2023-04-23T08:32:55.846Z,36.11
2023-04-23T08:39:03.513Z,36.13
2023-04-23T08:41:43.830Z,36.13
2023-04-23T08:44:54.193Z,36.13
2023-04-23T08:56:47.169Z,36.12
2023-04-23T09:00:22.378Z,36.12
2023-04-23T09:03:51.484Z,36.14
2023-04-23T09:06:22.938Z,36.15
2023-04-23T09:09:33.960Z,36.14
2023-04-23T09:12:16.370Z,36.15
2023-04-23T09:15:29.570Z,36.13
2023-04-23T09:21:32.618Z,36.14
2023-04-23T09:27:27.291Z,36.13
2023-04-23T09:30:30.120Z,36.13
2023-04-23T09:33:08.694Z,36.14
2023-04-23T09:35:40.874Z,36.14
2023-04-23T09:53:48.306Z,36.09
2023-04-23T10:08:45.009Z,36.08
2023-04-23T10:13:47.098Z,36.08
2023-04-23T10:19:11.127Z,36.09
2023-04-23T10:21:52.216Z,36.06
2023-04-23T10:24:49.560Z,36.08
2023-04-23T10:27:32.921Z,36.08
2023-04-23T10:36:36.458Z,36.04
2023-04-23T10:39:30.516Z,36.04
2023-04-23T10:47:49.108Z,36.05
2023-04-23T10:53:51.739Z,36.04
2023-04-23T10:56:15.998Z,36.03
2023-04-23T10:58:52.556Z,36.03
2023-04-23T11:01:24.746Z,36.00
2023-04-23T11:04:00.465Z,36.02
2023-04-23T11:07:14.708Z,36.01
2023-04-23T11:13:09.172Z,36.03
2023-04-23T11:15:54.024Z,36.01
2023-04-23T11:19:11.431Z,36.00
2023-04-23T11:22:12.100Z,36.04
2023-04-23T11:28:05.585Z,36.06
2023-04-23T11:30:35.695Z,36.09
2023-04-23T11:36:35.787Z,36.08
2023-04-23T11:39:07.030Z,36.10
2023-04-23T11:45:40.954Z,36.07
2023-04-23T11:48:18.514Z,35.98
2023-04-23T11:52:07.074Z,36.10
2023-04-23T11:54:49.580Z,36.21
2023-04-23T11:57:43.571Z,36.33
2023-04-23T12:00:30.926Z,36.41
2023-04-23T12:03:17.989Z,36.72
2023-04-23T12:06:47.762Z,37.07
2023-04-23T12:15:51.268Z,37.28
2023-04-23T12:18:40.048Z,37.29
2023-04-23T12:27:06.987Z,37.15
2023-04-23T12:29:37.283Z,37.18
2023-04-23T12:32:10.511Z,37.20
2023-04-23T12:34:42.288Z,37.20
2023-04-23T12:37:12.585Z,37.15
2023-04-23T12:39:44.828Z,37.07
2023-04-23T12:43:02.037Z,36.74
2023-04-23T12:45:49.944Z,36.34
2023-04-23T12:48:40.937Z,36.10
2023-04-23T12:51:37.165Z,36.08
2023-04-23T12:54:32.594Z,36.05
2023-04-23T13:00:56.514Z,36.12
2023-04-23T13:03:54.390Z,35.70
2023-04-23T13:06:24.409Z,35.63
2023-04-23T13:09:19.525Z,35.44
2023-04-23T13:25:00.824Z,35.31
2023-04-23T13:28:20.064Z,35.43
2023-04-23T13:30:59.702Z,35.37
2023-04-23T13:34:06.083Z,35.00
2023-04-23T13:36:40.703Z,34.78
2023-04-23T13:39:43.737Z,35.20
2023-04-23T13:45:16.130Z,35.49
2023-04-23T13:47:46.243Z,35.31
2023-04-23T13:50:16.985Z,35.05
2023-04-23T13:52:47.047Z,35.11
2023-04-23T13:55:23.602Z,35.09
2023-04-23T13:58:15.758Z,34.85
2023-04-23T14:01:03.761Z,34.60
2023-04-23T14:03:44.170Z,34.54
2023-04-23T14:09:54.907Z,35.16
2023-04-23T14:22:07.232Z,34.92
2023-04-23T14:28:42.374Z,34.68
2023-04-23T14:34:47.688Z,34.84
2023-04-23T14:37:20.042Z,34.69
2023-04-23T14:42:49.674Z,34.75
2023-04-23T14:45:45.496Z,34.87
2023-04-23T14:47:53.208Z,34.96
2023-04-23T14:50:23.236Z,34.91
2023-04-23T14:52:53.114Z,34.85
2023-04-23T14:55:32.775Z,34.83
2023-04-23T14:58:06.246Z,34.81
2023-04-23T15:00:39.672Z,34.76
2023-04-23T15:03:23.062Z,34.87
2023-04-23T15:05:53.573Z,34.93
2023-04-23T15:08:23.581Z,34.86
2023-04-23T15:10:53.524Z,35.13
2023-04-23T15:13:41.305Z,35.21
2023-04-23T15:16:13.188Z,35.14
2023-04-23T15:18:49.161Z,35.35
2023-04-23T15:21:23.969Z,35.28
2023-04-23T15:23:56.464Z,35.30
2023-04-23T15:26:25.643Z,35.40
2023-04-23T15:28:55.789Z,35.40
2023-04-23T15:31:28.838Z,35.35
2023-04-23T15:34:13.615Z,35.39
2023-04-23T15:36:52.009Z,35.35
2023-04-23T15:39:56.062Z,35.30
2023-04-23T15:42:42.544Z,35.37
2023-04-23T15:46:53.444Z,35.36
2023-04-23T15:48:00.239Z,35.41
2023-04-23T15:50:30.238Z,35.43
2023-04-23T15:53:01.592Z,35.46
2023-04-23T15:55:59.859Z,35.39
2023-04-23T15:58:30.677Z,35.34
2023-04-23T16:01:04.521Z,35.36
2023-04-23T16:06:49.070Z,35.32
2023-04-23T16:12:39.513Z,35.46
2023-04-23T16:17:41.548Z,35.53
2023-04-23T16:20:13.672Z,35.59
2023-04-23T16:22:43.743Z,35.58
2023-04-23T16:25:30.389Z,35.62
2023-04-23T16:28:30.185Z,35.64
2023-04-23T16:31:12.712Z,35.64
2023-04-23T16:34:09.661Z,35.64
2023-04-23T16:37:07.822Z,35.68
2023-04-23T16:39:49.746Z,35.68
2023-04-23T16:45:10.603Z,35.66
2023-04-23T16:47:40.969Z,35.58
2023-04-23T16:50:14.893Z,35.66
2023-04-23T16:52:44.435Z,35.66
2023-04-23T16:55:21.056Z,35.98
2023-04-23T16:58:07.947Z,36.11
2023-04-23T17:01:19.069Z,36.27
2023-04-23T17:03:56.464Z,36.25
2023-04-23T17:06:44.232Z,36.16
2023-04-23T17:09:14.529Z,36.20
2023-04-23T17:11:45.559Z,36.16
2023-04-23T17:14:15.502Z,36.32
2023-04-23T17:16:45.844Z,36.28
2023-04-23T17:22:21.573Z,36.05
2023-04-23T17:25:41.236Z,35.93
2023-04-23T17:28:22.708Z,36.13
2023-04-23T17:31:14.597Z,35.99
2023-04-23T17:33:57.699Z,35.94
2023-04-23T17:39:18.342Z,35.86
2023-04-23T17:41:48.673Z,36.04
2023-04-23T17:44:18.808Z,35.88
2023-04-23T17:46:56.961Z,35.86
2023-04-23T17:49:28.544Z,35.87
2023-04-23T17:52:33.578Z,35.85
2023-04-23T17:55:22.393Z,35.86
2023-04-23T17:58:18.717Z,35.85
2023-04-23T18:07:40.205Z,35.89
2023-04-23T18:10:11.504Z,35.87
2023-04-23T18:13:14.455Z,35.88
2023-04-23T18:16:09.856Z,35.89
2023-04-23T18:22:16.502Z,35.91
2023-04-23T18:25:15.399Z,35.92
2023-04-23T18:28:20.599Z,35.93
2023-04-23T18:31:13.916Z,35.95
2023-04-23T18:34:29.320Z,35.95
2023-04-23T18:37:34.762Z,35.98
2023-04-23T18:40:10.002Z,35.96
2023-04-23T18:43:24.504Z,35.97
2023-04-23T18:49:43.945Z,35.99
2023-04-23T18:52:45.548Z,35.97
2023-04-23T18:58:22.720Z,35.99
2023-04-23T19:04:10.478Z,36.01
2023-04-23T19:09:30.209Z,36.04
2023-04-23T19:12:00.123Z,36.05
2023-04-23T19:14:30.202Z,36.05
2023-04-23T19:17:00.152Z,36.03
2023-04-23T19:19:39.513Z,36.03
2023-04-23T19:22:57.610Z,36.04
2023-04-23T19:25:45.456Z,36.05
2023-04-23T19:28:35.419Z,36.07
2023-04-23T19:31:45.100Z,36.07
2023-04-23T19:34:34.775Z,36.09
2023-04-23T19:37:47.158Z,36.10
2023-04-23T19:40:54.009Z,36.11
2023-04-23T19:43:34.423Z,36.12
2023-04-23T19:46:16.968Z,36.14
2023-04-23T19:49:17.959Z,36.16
2023-04-23T19:51:26.916Z,36.16
2023-04-23T19:53:58.600Z,36.18
2023-04-23T19:56:28.503Z,36.17
2023-04-23T19:59:00.113Z,36.19
2023-04-23T20:01:36.027Z,36.18
2023-04-23T20:07:51.686Z,36.19
2023-04-23T20:11:05.246Z,36.20
2023-04-23T20:14:07.447Z,36.20
2023-04-23T20:19:43.264Z,36.25
2023-04-23T20:23:18.728Z,36.25
2023-04-23T20:25:45.932Z,36.27
2023-04-23T20:28:55.196Z,36.26
2023-04-23T20:34:51.015Z,36.30
2023-04-23T20:37:32.774Z,36.18
2023-04-23T20:44:07.363Z,36.41
2023-04-23T20:46:41.583Z,36.43
2023-04-23T20:50:02.921Z,36.44
2023-04-23T20:52:49.551Z,36.51
2023-04-23T20:56:02.179Z,36.50
2023-04-23T20:58:36.770Z,36.55
2023-04-23T21:05:00.341Z,36.59
2023-04-23T21:07:58.962Z,36.59
2023-04-23T21:10:55.733Z,36.70
2023-04-23T21:13:29.678Z,36.70
2023-04-23T21:17:17.563Z,36.76
2023-04-23T21:18:32.368Z,36.75
2023-04-23T21:21:02.293Z,36.78
2023-04-23T21:23:35.672Z,36.78
2023-04-23T21:26:06.956Z,36.79
2023-04-23T21:28:48.735Z,36.84
2023-04-23T21:34:38.913Z,36.90
2023-04-23T21:37:44.271Z,36.88
2023-04-23T21:40:53.220Z,36.90
2023-04-23T21:43:33.655Z,36.86
2023-04-23T21:46:03.614Z,36.86
2023-04-23T21:48:35.288Z,36.89
2023-04-23T21:51:05.776Z,36.92
2023-04-23T21:53:35.819Z,36.97
2023-04-23T22:02:22.559Z,36.88
2023-04-23T22:05:00.529Z,36.88
2023-04-23T22:11:13.574Z,36.90
2023-04-23T22:23:39.561Z,36.97
2023-04-23T22:26:13.848Z,36.94
2023-04-23T22:32:19.768Z,36.95
2023-04-23T22:38:55.772Z,36.92
2023-04-23T22:41:37.228Z,36.94
2023-04-23T22:44:34.664Z,37.00
2023-04-23T22:47:21.259Z,37.02
2023-04-23T22:50:51.975Z,37.02
2023-04-23T22:53:54.739Z,37.02
2023-04-23T22:56:27.321Z,36.97
2023-04-23T22:59:41.116Z,36.98
2023-04-23T23:03:00.974Z,37.05
2023-04-23T23:05:34.900Z,37.06
2023-04-23T23:08:32.746Z,37.09
2023-04-23T23:11:49.107Z,37.08
2023-04-23T23:14:40.524Z,37.10
2023-04-23T23:17:53.059Z,37.10
2023-04-23T23:20:47.072Z,37.11
2023-04-23T23:23:48.397Z,37.11
2023-04-23T23:27:07.220Z,37.11
2023-04-23T23:29:45.381Z,37.13
2023-04-23T23:33:04.008Z,37.13
2023-04-23T23:35:34.068Z,37.14
2023-04-23T23:38:53.303Z,37.13
2023-04-23T23:41:14.573Z,37.15
2023-04-23T23:50:12.014Z,37.18
2023-04-23T23:53:27.467Z,37.17
